createdAt,value
2017-08-03T00:01:26.716Z,15.60
2017-08-03T00:03:53.375Z,15.73
2017-08-03T00:06:20.014Z,18.35
2017-08-03T00:08:46.654Z,19.37
2017-08-03T00:11:13.264Z,19.40
2017-08-03T00:13:39.934Z,16.33
2017-08-03T00:18:38.210Z,11.57
2017-08-03T00:21:04.847Z,12.15
2017-08-03T00:23:31.466Z,10.70
2017-08-03T00:25:58.142Z,10.77
2017-08-03T00:28:24.891Z,11.50
2017-08-03T00:30:51.503Z,11.45
2017-08-03T00:33:18.105Z,11.18
2017-08-03T00:35:44.741Z,12.45
2017-08-03T00:38:11.447Z,12.32
2017-08-03T00:40:38.082Z,11.88
2017-08-03T00:43:04.822Z,12.80
2017-08-03T00:45:31.463Z,13.00
2017-08-03T00:47:58.098Z,12.43
2017-08-03T00:50:24.738Z,12.98
2017-08-03T00:52:51.361Z,12.80
2017-08-03T00:55:17.975Z,12.73
2017-08-03T00:57:44.610Z,15.48
2017-08-03T01:00:11.217Z,14.35
2017-08-03T01:02:37.928Z,13.40
2017-08-03T01:05:04.567Z,13.52
2017-08-03T01:07:31.178Z,13.77
2017-08-03T01:09:57.849Z,14.50
2017-08-03T01:12:24.588Z,16.67
2017-08-03T01:14:51.224Z,14.35
2017-08-03T01:17:17.835Z,15.20
2017-08-03T01:19:44.505Z,15.60
2017-08-03T01:22:11.146Z,13.60
2017-08-03T01:24:37.759Z,13.23
2017-08-03T01:27:04.418Z,12.63
2017-08-03T01:29:31.025Z,12.88
2017-08-03T01:31:57.706Z,12.10
2017-08-03T01:34:24.449Z,12.95
2017-08-03T01:36:51.058Z,11.68
2017-08-03T01:39:17.666Z,12.02
2017-08-03T01:41:44.357Z,12.75
2017-08-03T01:44:10.962Z,11.40
2017-08-03T01:46:52.589Z,11.68
2017-08-03T01:49:19.230Z,12.35
2017-08-03T01:51:45.870Z,11.82
2017-08-03T01:54:12.610Z,11.95
2017-08-03T01:56:39.222Z,11.65
2017-08-03T01:59:05.838Z,11.68
2017-08-03T02:01:32.466Z,12.55
2017-08-03T02:03:59.076Z,13.80
2017-08-03T02:06:25.685Z,15.48
2017-08-03T02:08:52.748Z,13.93
2017-08-03T02:11:19.366Z,15.77
2017-08-03T02:13:45.975Z,16.73
2017-08-03T02:16:12.666Z,14.98
2017-08-03T02:18:39.269Z,12.40
2017-08-03T02:21:05.874Z,13.05
2017-08-03T02:23:32.506Z,12.73
2017-08-03T02:25:59.109Z,12.45
2017-08-03T02:28:25.762Z,13.25
2017-08-03T02:30:52.478Z,12.95
2017-08-03T02:33:19.091Z,12.90
2017-08-03T02:35:45.782Z,12.48
2017-08-03T02:38:12.527Z,13.07
2017-08-03T02:40:39.137Z,13.82
2017-08-03T02:43:05.742Z,13.40
2017-08-03T02:45:32.381Z,13.65
2017-08-03T02:47:58.989Z,12.98
2017-08-03T02:50:25.614Z,11.90
2017-08-03T02:52:52.249Z,13.23
2017-08-03T02:55:18.864Z,13.40
2017-08-03T02:57:45.467Z,13.65
2017-08-03T03:00:12.178Z,12.95
2017-08-03T03:02:38.807Z,13.55
2017-08-03T03:05:05.419Z,13.95
2017-08-03T03:07:32.085Z,16.20
2017-08-03T03:09:58.697Z,17.00
2017-08-03T03:12:25.364Z,14.85
2017-08-03T03:14:51.997Z,14.25
2017-08-03T03:17:18.642Z,13.43
2017-08-03T03:19:45.281Z,16.00
2017-08-03T03:22:11.910Z,16.02
2017-08-03T03:24:38.558Z,16.10
2017-08-03T03:27:05.173Z,15.40
2017-08-03T03:29:31.801Z,17.55
2017-08-03T03:31:58.473Z,15.75
2017-08-03T03:34:25.086Z,13.52
2017-08-03T03:36:51.757Z,14.27
2017-08-03T03:39:18.366Z,11.98
2017-08-03T03:41:44.983Z,14.68
2017-08-03T03:44:11.611Z,11.48
2017-08-03T03:46:38.214Z,13.07
2017-08-03T03:49:04.818Z,13.02
2017-08-03T03:51:31.490Z,11.93
2017-08-03T03:53:58.126Z,11.48
2017-08-03T03:56:24.766Z,13.35
2017-08-03T03:58:51.407Z,11.77
2017-08-03T04:01:18.009Z,12.05
2017-08-03T04:03:44.620Z,11.20
2017-08-03T04:06:11.258Z,12.02
2017-08-03T04:08:37.957Z,10.85
2017-08-03T04:11:04.607Z,10.65
2017-08-03T04:13:31.341Z,12.23
2017-08-03T04:15:57.979Z,12.13
2017-08-03T04:18:24.618Z,11.68
2017-08-03T04:20:51.358Z,13.45
2017-08-03T04:23:17.970Z,11.50
2017-08-03T04:25:44.581Z,11.00
2017-08-03T04:28:11.230Z,11.30
2017-08-03T04:30:37.915Z,10.80
2017-08-03T04:33:04.517Z,12.20
2017-08-03T04:35:31.202Z,11.65
2017-08-03T04:37:57.833Z,11.82
2017-08-03T04:40:24.474Z,12.77
2017-08-03T04:42:51.525Z,10.50
2017-08-03T04:45:18.159Z,12.48
2017-08-03T04:47:44.793Z,11.98
2017-08-03T04:50:11.426Z,13.75
2017-08-03T04:52:38.038Z,14.20
2017-08-03T04:55:04.718Z,16.55
2017-08-03T04:57:31.458Z,15.35
2017-08-03T04:59:58.070Z,14.30
2017-08-03T05:02:24.738Z,15.95
2017-08-03T05:04:51.475Z,13.62
2017-08-03T05:07:18.080Z,13.93
2017-08-03T05:09:44.697Z,14.02
2017-08-03T05:12:11.394Z,15.25
2017-08-03T05:14:38.033Z,15.40
2017-08-03T05:17:04.674Z,14.18
2017-08-03T05:19:31.411Z,14.07
2017-08-03T05:21:58.020Z,15.30
2017-08-03T05:24:25.060Z,16.37
2017-08-03T05:26:52.708Z,14.85
2017-08-03T05:29:20.466Z,15.65
2017-08-03T05:31:48.650Z,15.52
2017-08-03T05:34:18.907Z,14.82
2017-08-03T05:36:46.653Z,15.70
2017-08-03T05:39:14.403Z,14.90
2017-08-03T05:41:43.907Z,14.77
2017-08-03T05:44:11.278Z,14.80
2017-08-03T05:46:38.926Z,15.20
2017-08-03T05:49:06.392Z,16.80
2017-08-03T05:51:33.891Z,16.48
2017-08-03T05:54:00.642Z,16.35
2017-08-03T05:56:27.291Z,17.40
2017-08-03T05:58:54.087Z,16.90
2017-08-03T06:01:20.995Z,17.73
2017-08-03T06:03:47.960Z,15.32
2017-08-03T06:06:14.925Z,15.45
2017-08-03T06:08:41.557Z,16.65
2017-08-03T06:11:08.205Z,20.55
2017-08-03T06:13:35.131Z,16.83
2017-08-03T06:16:01.825Z,21.02
2017-08-03T06:18:29.423Z,18.73
2017-08-03T06:20:57.198Z,18.10
2017-08-03T06:23:24.746Z,17.42
2017-08-03T06:25:53.139Z,18.00
2017-08-03T06:28:21.393Z,23.48
2017-08-03T06:30:48.189Z,37.75
2017-08-03T06:33:14.879Z,39.08
2017-08-03T06:35:42.153Z,49.92
2017-08-03T06:38:09.063Z,52.13
2017-08-03T06:40:35.735Z,53.75
2017-08-03T06:43:02.465Z,106.40
2017-08-03T06:45:29.723Z,82.80
2017-08-03T06:47:56.398Z,60.00
2017-08-03T06:50:23.169Z,53.50
2017-08-03T06:52:49.834Z,48.75
2017-08-03T06:55:16.510Z,58.58
2017-08-03T06:57:43.352Z,58.13
2017-08-03T07:00:10.033Z,59.53
2017-08-03T07:02:36.775Z,56.47
2017-08-03T07:05:03.378Z,58.17
2017-08-03T07:07:30.059Z,54.50
2017-08-03T07:09:56.700Z,51.22
2017-08-03T07:12:23.685Z,68.00
2017-08-03T07:14:52.339Z,52.53
2017-08-03T07:17:20.351Z,53.15
2017-08-03T07:19:47.184Z,53.35
2017-08-03T07:22:15.341Z,54.22
2017-08-03T07:24:42.121Z,49.50
2017-08-03T07:27:08.828Z,51.13
2017-08-03T07:29:35.688Z,46.85
2017-08-03T07:32:02.892Z,42.65
2017-08-03T07:34:29.990Z,50.28
2017-08-03T07:36:56.850Z,49.00
2017-08-03T07:39:25.035Z,36.63
2017-08-03T07:41:52.838Z,39.22
2017-08-03T07:44:22.014Z,34.80
2017-08-03T07:46:48.775Z,34.70
2017-08-03T07:49:16.990Z,27.98
2017-08-03T07:51:43.645Z,30.20
2017-08-03T07:54:11.684Z,27.95
2017-08-03T07:56:39.068Z,29.20
2017-08-03T07:59:05.753Z,29.25
2017-08-03T08:01:32.493Z,27.83
2017-08-03T08:03:59.112Z,22.20
2017-08-03T08:06:25.773Z,23.80
2017-08-03T08:08:52.459Z,26.37
2017-08-03T08:11:19.070Z,27.42
2017-08-03T08:13:45.789Z,27.62
2017-08-03T08:16:12.534Z,27.95
2017-08-03T08:18:39.142Z,28.85
2017-08-03T08:21:05.753Z,26.73
2017-08-03T08:23:32.396Z,34.15
2017-08-03T08:25:59.001Z,31.02
2017-08-03T08:28:25.620Z,30.80
2017-08-03T08:30:52.266Z,24.63
2017-08-03T08:33:18.901Z,25.35
2017-08-03T08:35:45.515Z,26.37
2017-08-03T08:38:12.185Z,24.58
2017-08-03T08:40:38.790Z,26.67
2017-08-03T08:43:05.463Z,28.95
2017-08-03T08:45:32.102Z,27.62
2017-08-03T08:47:58.706Z,30.65
2017-08-03T08:50:25.378Z,26.50
2017-08-03T08:52:52.009Z,27.83
2017-08-03T08:55:18.660Z,22.45
2017-08-03T08:57:45.265Z,22.45
2017-08-03T09:00:11.904Z,26.55
2017-08-03T09:02:38.522Z,22.10
2017-08-03T09:05:05.213Z,23.52
2017-08-03T09:07:31.959Z,21.23
2017-08-03T09:09:58.573Z,21.55
2017-08-03T09:12:25.234Z,22.33
2017-08-03T09:14:51.870Z,19.35
2017-08-03T09:17:18.510Z,21.05
2017-08-03T09:19:45.146Z,23.02
2017-08-03T09:22:11.777Z,21.83
2017-08-03T09:24:38.432Z,22.73
2017-08-03T09:27:05.065Z,25.88
2017-08-03T09:29:31.818Z,23.58
2017-08-03T09:31:58.446Z,24.52
2017-08-03T09:34:25.054Z,24.20
2017-08-03T09:36:51.690Z,24.92
2017-08-03T09:39:18.367Z,21.70
2017-08-03T09:41:44.981Z,23.85
2017-08-03T09:44:11.643Z,23.30
2017-08-03T09:46:38.253Z,20.55
2017-08-03T09:49:04.919Z,21.00
2017-08-03T09:51:31.545Z,21.87
2017-08-03T09:53:58.159Z,21.70
2017-08-03T09:56:24.880Z,20.50
2017-08-03T09:58:51.509Z,20.77
2017-08-03T10:01:18.114Z,20.17
2017-08-03T10:03:44.722Z,22.83
2017-08-03T10:06:11.396Z,19.55
2017-08-03T10:08:38.034Z,20.15
2017-08-03T10:11:04.644Z,19.00
2017-08-03T10:13:31.354Z,18.00
2017-08-03T10:15:58.053Z,21.77
2017-08-03T10:18:24.735Z,18.80
2017-08-03T10:20:51.434Z,19.80
2017-08-03T10:23:18.037Z,19.58
2017-08-03T10:25:44.710Z,16.12
2017-08-03T10:28:11.341Z,17.73
2017-08-03T10:30:37.990Z,17.70
2017-08-03T10:33:04.593Z,18.80
2017-08-03T10:35:31.270Z,19.25
2017-08-03T10:37:57.906Z,17.67
2017-08-03T10:40:24.518Z,19.37
2017-08-03T10:42:51.158Z,20.65
2017-08-03T10:45:17.769Z,18.75
2017-08-03T10:47:44.383Z,18.30
2017-08-03T10:50:11.102Z,20.10
2017-08-03T10:52:37.742Z,24.15
2017-08-03T10:55:04.350Z,22.23
2017-08-03T10:57:31.025Z,20.45
2017-08-03T10:59:57.643Z,18.37
2017-08-03T11:02:24.249Z,18.87
2017-08-03T11:04:50.882Z,19.42
2017-08-03T11:07:17.494Z,19.15
2017-08-03T11:09:44.096Z,20.35
2017-08-03T11:12:10.793Z,20.80
2017-08-03T11:14:37.397Z,20.48
2017-08-03T11:17:04.006Z,20.12
2017-08-03T11:19:30.813Z,20.58
2017-08-03T11:21:57.452Z,21.00
2017-08-03T11:24:24.150Z,21.23
2017-08-03T11:26:50.890Z,21.50
2017-08-03T11:29:17.573Z,23.87
2017-08-03T11:31:44.181Z,23.95
2017-08-03T11:34:10.822Z,21.90
2017-08-03T11:36:37.449Z,23.15
2017-08-03T11:39:04.086Z,23.17
2017-08-03T11:41:30.771Z,22.42
2017-08-03T11:43:57.381Z,22.52
2017-08-03T11:46:23.986Z,20.12
2017-08-03T11:48:50.642Z,20.48
2017-08-03T11:51:17.266Z,20.55
2017-08-03T11:53:43.887Z,20.55
2017-08-03T11:56:10.858Z,15.68
2017-08-03T11:58:37.466Z,18.95
2017-08-03T12:01:04.087Z,18.37
2017-08-03T12:03:30.718Z,18.25
2017-08-03T12:05:57.416Z,21.33
2017-08-03T12:08:24.082Z,19.60
2017-08-03T12:10:50.845Z,17.65
2017-08-03T12:13:17.454Z,20.20
2017-08-03T12:15:44.328Z,20.52
2017-08-03T12:18:11.002Z,20.25
2017-08-03T12:20:37.662Z,19.33
2017-08-03T12:23:04.309Z,18.37
2017-08-03T12:25:31.046Z,17.12
2017-08-03T12:27:58.445Z,17.20
2017-08-03T12:30:25.596Z,18.77
2017-08-03T12:32:53.412Z,18.60
2017-08-03T12:35:20.057Z,17.65
2017-08-03T12:37:46.677Z,18.35
2017-08-03T12:40:13.308Z,19.67
2017-08-03T12:42:40.027Z,19.20
2017-08-03T12:45:07.071Z,16.70
2017-08-03T12:47:33.724Z,15.63
2017-08-03T12:50:00.402Z,18.30
2017-08-03T12:52:27.141Z,16.15
2017-08-03T12:54:53.937Z,17.40
2017-08-03T12:57:20.878Z,20.15
2017-08-03T12:59:48.618Z,20.02
2017-08-03T13:02:15.794Z,17.67
2017-08-03T13:04:42.441Z,17.25
2017-08-03T13:07:09.308Z,17.30
2017-08-03T13:09:35.974Z,17.27
2017-08-03T13:12:02.586Z,17.58
2017-08-03T13:14:29.253Z,19.35
2017-08-03T13:16:55.993Z,18.65
2017-08-03T13:19:22.618Z,19.12
2017-08-03T13:21:49.229Z,16.75
2017-08-03T13:24:16.158Z,64.82
2017-08-03T13:26:42.854Z,26.08
2017-08-03T13:29:09.745Z,27.08
2017-08-03T13:31:36.442Z,19.77
2017-08-03T13:34:03.051Z,18.30
2017-08-03T13:36:29.662Z,17.75
2017-08-03T13:38:56.297Z,18.67
2017-08-03T13:41:23.005Z,17.23
2017-08-03T13:43:49.637Z,16.70
2017-08-03T13:46:16.570Z,16.75
2017-08-03T13:48:43.198Z,16.65
2017-08-03T13:51:09.860Z,16.00
2017-08-03T13:53:36.491Z,15.68
2017-08-03T13:56:03.138Z,15.05
2017-08-03T13:58:29.743Z,16.23
2017-08-03T14:00:56.460Z,14.60
2017-08-03T14:03:23.226Z,15.07
2017-08-03T14:05:52.487Z,14.55
2017-08-03T14:08:19.755Z,13.55
2017-08-03T14:10:46.404Z,15.27
2017-08-03T14:13:13.190Z,15.45
2017-08-03T14:15:39.983Z,15.68
2017-08-03T14:18:06.610Z,13.62
2017-08-03T14:20:33.564Z,12.98
2017-08-03T14:23:00.229Z,13.18
2017-08-03T14:25:26.921Z,12.25
2017-08-03T14:27:53.534Z,11.57
2017-08-03T14:30:20.186Z,14.25
2017-08-03T14:32:47.317Z,13.02
2017-08-03T14:35:13.981Z,13.75
2017-08-03T14:37:41.167Z,12.95
2017-08-03T14:40:07.802Z,11.52
2017-08-03T14:42:35.392Z,10.80
2017-08-03T14:45:02.090Z,11.13
2017-08-03T14:47:28.744Z,10.77
2017-08-03T14:49:55.442Z,11.40
2017-08-03T14:52:22.181Z,10.90
2017-08-03T14:54:48.789Z,11.67
2017-08-03T14:57:15.462Z,11.63
2017-08-03T14:59:42.107Z,11.23
2017-08-03T15:02:08.709Z,10.30
2017-08-03T15:04:35.374Z,10.87
2017-08-03T15:07:02.114Z,9.53
2017-08-03T15:09:28.717Z,9.37
2017-08-03T15:11:55.326Z,8.70
2017-08-03T15:14:21.954Z,8.83
2017-08-03T15:16:48.567Z,8.93
2017-08-03T15:19:15.170Z,7.93
2017-08-03T15:21:41.797Z,8.77
2017-08-03T15:24:08.486Z,8.03
2017-08-03T15:26:35.130Z,21.03
2017-08-03T15:29:01.865Z,18.13
2017-08-03T15:31:28.505Z,14.87
2017-08-03T15:33:55.150Z,11.70
2017-08-03T15:36:21.886Z,9.50
2017-08-03T15:38:48.534Z,9.40
2017-08-03T15:41:15.165Z,9.80
2017-08-03T15:43:41.906Z,29.40
2017-08-03T15:46:08.506Z,8.77
2017-08-03T15:48:35.109Z,12.50
2017-08-03T15:51:01.830Z,18.37
2017-08-03T15:53:28.467Z,17.50
2017-08-03T15:55:55.085Z,19.50
2017-08-03T15:58:21.742Z,9.00
2017-08-03T16:00:48.404Z,17.97
2017-08-03T16:03:15.010Z,6.80
2017-08-03T16:05:41.634Z,7.30
2017-08-03T16:08:08.245Z,6.87
2017-08-03T16:10:34.849Z,8.07
2017-08-03T16:13:01.486Z,6.50
2017-08-03T16:15:28.110Z,6.40
2017-08-03T16:17:54.709Z,8.57
2017-08-03T16:20:21.386Z,6.37
2017-08-03T16:22:47.994Z,8.40
2017-08-03T16:25:14.594Z,5.90
2017-08-03T16:27:41.210Z,6.17
2017-08-03T16:30:07.811Z,6.20
2017-08-03T16:32:34.480Z,5.57
2017-08-03T16:35:01.222Z,5.30
2017-08-03T16:37:27.863Z,6.20
2017-08-03T16:39:54.511Z,6.00
2017-08-03T16:42:21.155Z,6.13
2017-08-03T16:44:47.789Z,4.90
2017-08-03T16:47:14.381Z,5.80
2017-08-03T16:49:41.058Z,6.53
2017-08-03T16:52:07.658Z,5.30
2017-08-03T16:54:34.263Z,5.80
2017-08-03T16:57:00.978Z,5.90
2017-08-03T16:59:27.585Z,6.20
2017-08-03T17:01:54.249Z,6.78
2017-08-03T17:04:20.893Z,6.22
2017-08-03T17:06:47.502Z,5.60
2017-08-03T17:09:14.174Z,6.70
2017-08-03T17:11:40.915Z,5.37
2017-08-03T17:14:07.732Z,5.60
2017-08-03T17:16:34.363Z,6.97
2017-08-03T17:19:01.004Z,6.15
2017-08-03T17:21:27.609Z,6.72
2017-08-03T17:23:54.217Z,6.60
2017-08-03T17:26:20.949Z,7.12
2017-08-03T17:28:47.561Z,6.20
2017-08-03T17:31:14.182Z,5.97
2017-08-03T17:33:40.869Z,6.72
2017-08-03T17:36:07.481Z,6.10
2017-08-03T17:38:34.090Z,7.12
2017-08-03T17:41:00.728Z,7.32
2017-08-03T17:43:27.369Z,7.18
2017-08-03T17:45:53.973Z,7.20
2017-08-03T17:48:20.605Z,6.80
2017-08-03T17:50:47.238Z,6.93
2017-08-03T17:53:13.882Z,7.00
2017-08-03T17:55:45.030Z,6.55
2017-08-03T17:58:12.530Z,6.90
2017-08-03T18:00:41.245Z,7.70
2017-08-03T18:03:09.231Z,8.75
2017-08-03T18:05:37.107Z,7.78
2017-08-03T18:08:04.103Z,7.62
2017-08-03T18:10:31.107Z,7.93
2017-08-03T18:13:02.373Z,8.02
2017-08-03T18:15:32.097Z,7.90
2017-08-03T18:18:01.814Z,8.00
2017-08-03T18:20:29.617Z,7.32
2017-08-03T18:22:58.504Z,6.87
2017-08-03T18:25:27.093Z,7.35
2017-08-03T18:27:53.822Z,7.62
2017-08-03T18:30:20.810Z,7.25
2017-08-03T18:32:48.989Z,6.85
2017-08-03T18:35:19.661Z,6.60
2017-08-03T18:37:46.462Z,8.27
2017-08-03T18:40:13.837Z,6.85
2017-08-03T18:42:46.704Z,7.30
2017-08-03T18:45:18.097Z,9.70
2017-08-03T18:47:45.777Z,8.35
2017-08-03T18:50:12.378Z,8.18
2017-08-03T18:52:39.548Z,7.90
2017-08-03T18:55:07.485Z,8.55
2017-08-03T18:57:34.115Z,7.68
2017-08-03T19:00:03.931Z,7.60
2017-08-03T19:02:30.596Z,7.80
2017-08-03T19:04:57.659Z,8.93
2017-08-03T19:07:24.325Z,7.55
2017-08-03T19:09:50.926Z,6.82
2017-08-03T19:12:18.430Z,7.80
2017-08-03T19:14:45.118Z,6.70
2017-08-03T19:17:11.718Z,6.85
2017-08-03T19:19:38.330Z,7.20
2017-08-03T19:22:04.968Z,6.85
2017-08-03T19:24:31.650Z,6.00
2017-08-03T19:26:58.538Z,7.57
2017-08-03T19:29:25.233Z,6.93
2017-08-03T19:31:52.022Z,6.40
2017-08-03T19:34:18.692Z,6.28
2017-08-03T19:36:45.604Z,7.03
2017-08-03T19:39:15.877Z,6.68
2017-08-03T19:41:42.547Z,6.25
2017-08-03T19:44:09.618Z,6.40
2017-08-03T19:46:36.460Z,7.47
2017-08-03T19:49:04.122Z,6.20
2017-08-03T19:51:31.023Z,6.47
2017-08-03T19:53:57.922Z,6.00
2017-08-03T19:56:25.157Z,7.10
2017-08-03T19:58:51.781Z,7.07
2017-08-03T20:01:18.380Z,7.40
2017-08-03T20:03:47.007Z,7.55
2017-08-03T20:06:13.833Z,7.75
2017-08-03T20:08:49.234Z,8.48
2017-08-03T20:11:21.261Z,8.00
2017-08-03T20:13:49.842Z,7.95
2017-08-03T20:16:17.157Z,6.70
2017-08-03T20:18:45.577Z,7.55
2017-08-03T20:21:14.478Z,7.87
2017-08-03T20:23:41.545Z,7.55
2017-08-03T20:26:08.634Z,7.10
2017-08-03T20:28:35.744Z,7.93
2017-08-03T20:31:03.989Z,9.13
2017-08-03T20:33:30.600Z,8.70
2017-08-03T20:38:32.002Z,10.05
2017-08-03T20:40:58.744Z,10.73
2017-08-03T20:43:25.427Z,10.93
2017-08-03T20:45:52.115Z,12.52
2017-08-03T20:48:18.820Z,12.05
2017-08-03T20:50:45.446Z,11.73
2017-08-03T20:53:12.074Z,10.23
2017-08-03T20:55:38.774Z,12.77
2017-08-03T20:58:05.390Z,10.77
2017-08-03T21:00:32.043Z,12.93
2017-08-03T21:02:58.651Z,12.70
2017-08-03T21:05:25.322Z,12.90
2017-08-03T21:07:51.963Z,11.57
2017-08-03T21:10:18.598Z,12.48
2017-08-03T21:12:45.240Z,12.57
2017-08-03T21:15:11.982Z,12.55
2017-08-03T21:17:38.622Z,12.70
2017-08-03T21:20:05.234Z,11.63
2017-08-03T21:22:31.894Z,10.80
2017-08-03T21:24:58.534Z,10.50
2017-08-03T21:27:25.138Z,10.82
2017-08-03T21:29:51.779Z,10.43
2017-08-03T21:32:18.454Z,10.25
2017-08-03T21:34:45.066Z,9.52
2017-08-03T21:37:11.739Z,10.52
2017-08-03T21:39:38.366Z,9.60
2017-08-03T21:42:05.011Z,9.60
2017-08-03T21:44:31.747Z,9.85
2017-08-03T21:46:58.358Z,11.57
2017-08-03T21:49:24.970Z,10.05
2017-08-03T21:51:51.606Z,10.18
2017-08-03T21:54:18.214Z,10.05
2017-08-03T21:56:44.830Z,10.95
2017-08-03T21:59:11.460Z,9.80
2017-08-03T22:01:38.122Z,10.50
2017-08-03T22:04:04.763Z,10.27
2017-08-03T22:06:31.398Z,10.20
2017-08-03T22:08:58.010Z,10.30
2017-08-03T22:11:24.612Z,9.65
2017-08-03T22:13:51.246Z,10.43
2017-08-03T22:16:17.854Z,9.63
2017-08-03T22:18:44.491Z,9.30
2017-08-03T22:21:11.114Z,9.70
2017-08-03T22:23:37.766Z,9.38
2017-08-03T22:26:04.369Z,9.65
2017-08-03T22:28:31.003Z,10.30
2017-08-03T22:30:57.610Z,9.95
2017-08-03T22:33:24.321Z,9.55
2017-08-03T22:35:51.051Z,9.43
2017-08-03T22:38:17.706Z,9.20
2017-08-03T22:40:44.347Z,8.95
2017-08-03T22:43:11.086Z,9.25
2017-08-03T22:45:37.724Z,9.60
2017-08-03T22:48:04.330Z,9.52
2017-08-03T22:50:30.963Z,9.38
2017-08-03T22:52:57.649Z,9.65
2017-08-03T22:55:24.278Z,9.98
2017-08-03T22:57:51.022Z,9.38
2017-08-03T23:00:17.658Z,8.60
2017-08-03T23:02:44.275Z,9.30
2017-08-03T23:05:10.944Z,9.43
2017-08-03T23:07:37.554Z,9.73
2017-08-03T23:10:04.167Z,10.68
2017-08-03T23:12:31.166Z,9.23
2017-08-03T23:14:57.766Z,9.40
2017-08-03T23:17:24.365Z,8.70
2017-08-03T23:19:50.997Z,9.88
2017-08-03T23:22:17.618Z,8.98
2017-08-03T23:24:44.258Z,9.27
2017-08-03T23:27:10.886Z,9.25
2017-08-03T23:29:37.540Z,9.45
2017-08-03T23:32:04.170Z,8.45
2017-08-03T23:34:30.918Z,9.85
2017-08-03T23:36:57.558Z,9.43
2017-08-03T23:39:24.199Z,9.45
2017-08-03T23:41:50.834Z,13.25
2017-08-03T23:44:17.445Z,11.60
2017-08-03T23:46:44.058Z,12.18
2017-08-03T23:49:10.750Z,10.82
2017-08-03T23:51:37.362Z,10.35
2017-08-03T23:54:04.026Z,9.70
2017-08-03T23:56:30.774Z,9.15
2017-08-03T23:58:57.410Z,9.02
